Amargosa Valley, Nevada Weather observations

Data are for observation ending at time listed.
 Day   Time    Ave.   Ave.  Ave.  Vector   Max.   Stn.    Total    Solar   Ave.  
  of    of     Air    Rel.  Wind   Wind    Wind   Baro.  Precip.   Rad.    Soil  
Year   Day     Temp.  Hum.  Speed  Dir.    Gust   Pres.                    Temp. 
2014   (PST)    F      %     mph   deg.    mph     mb.     in.     W/m2     F   
------------------------------------------------------------------------------
 233    2:20   73.1    26    2.1    59      4.3   927.5    0.00       0    88.7
 233    2:30   72.6    26    1.7    21      4.7   927.5    0.00       0    88.6
 233    2:40   70.4    28    0.6    15      2.2   927.5    0.00       0    88.5
 233    2:50   70.1    29    0.3     7      1.2   927.5    0.00       0    88.4
 233    3:00   70.9    28    2.0    41      3.7   927.5    0.00       0    88.3
 233    3:10   71.7    27    1.9    47      3.0   927.4    0.00       0    88.2
 233    3:20   71.5    27    2.1    67      4.5   927.4    0.00       0    88.1
 233    3:30   71.7    27    3.4    77      5.3   927.4    0.00       0    88.1
 233    3:40   71.5    27    2.2    66      4.9   927.4    0.00       0    88.0
 233    3:50   70.2    28    0.7     9      1.8   927.4    0.00       0    87.9
 233    4:00   68.5    30    1.1   329      3.1   927.5    0.00       0    87.8
 233    4:10   68.1    30    1.6    28      3.3   927.5    0.00       0    87.7
 233    4:20   68.9    30    2.3    30      4.5   927.5    0.00       0    87.6
 233    4:30   68.1    31    2.2    32      4.4   927.5    0.00       0    87.5
 233    4:40   66.5    32    1.8   322      3.8   927.6    0.00       0    87.4
 233    4:50   65.4    34    1.6   326      4.4   927.8    0.00       0    87.3
 233    5:00   65.1    34    1.2   333      2.1   927.9    0.00       0    87.2
 233    5:10   65.1    35    0.5   336      2.9   928.1    0.00       1    87.2
 233    5:20   65.2    35    0.4     3      1.0   928.2    0.00       8    87.1
 233    5:30   65.6    34    1.5    20      3.7   928.3    0.00      28    87.0
 233    5:40   66.8    33    2.8    29      5.1   928.4    0.00      54    86.8
 233    5:50   67.7    32    3.0    29      4.8   928.6    0.00      82    86.7
 233    6:00   68.9    31    3.1    31      4.4   928.7    0.00     117    86.6
 233    6:10   70.8    30    3.1    35      4.2   928.8    0.00     148    86.5
 233    6:20   73.0    28    2.3    40      5.3   929.0    0.00     180    86.4
 233    6:30   75.0    27    1.5    45      3.1   929.1    0.00     213    86.3
 233    6:40   77.2    25    1.5    65      4.7   929.2    0.00     244    86.2
 233    6:50   77.8    24    4.1    88      6.5   929.5    0.00     275    86.1
 233    7:00   77.6    23    5.3   117      7.2   929.7    0.00     295    86.0
 233    7:10   78.0    23    4.3   137      6.0   929.9    0.00     341    85.9
 233    7:20   78.4    23    3.3   150      5.3   929.9    0.00     373    85.8
 233    7:30   78.9    23    3.3   150      5.3   930.1    0.00     405    85.8
 233    7:40   79.6    22    3.6   145      5.6   930.2    0.00     438    85.7
 233    7:50   79.8    22    4.1   143      5.9   930.2    0.00     471    85.6
 233    8:00   80.9    21    4.3   143      6.9   930.2    0.00     502    85.5
 233    8:10   81.6    21    4.5   149      7.3   930.3    0.00     532    85.5
 233    8:20   82.5    20    4.2   136      7.2   930.3    0.00     562    85.5
 233    8:30   82.9    21    4.4   130      6.8   930.3    0.00     592    85.4
 233    8:40   83.4    21    4.5   148      7.8   930.4    0.00     620    85.4
 233    8:50   83.6    21    4.4   160      7.6   930.4    0.00     647    85.3
 233    9:00   84.3    21    4.7   154      8.4   930.5    0.00     673    85.3
 233    9:10   84.8    20    3.9   157      7.7   930.5    0.00     696    85.3
 233    9:20   85.8    19    2.5   152      6.0   930.6    0.00     717    85.3
 233    9:30   86.0    19    4.2   173      7.5   930.5    0.00     738    85.3
 233    9:40   86.2    19    4.8   175      7.8   930.5    0.00     760    85.3
 233    9:50   86.9    18    3.9   141      7.3   930.5    0.00     779    85.3
 233   10:00   87.5    18    4.4   145      8.4   930.5    0.00     797    85.3
 233   10:10   88.1    18    2.9   143      7.3   930.4    0.00     813    85.4
 233   10:20   88.5    19    5.4   163      9.1   930.3    0.00     817    85.4
 233   10:30   88.7    18    5.7   147     10.6   930.2    0.00     757    85.5
 233   10:40   89.0    18    5.6   149     11.1   930.0    0.00     735    85.6
 233   10:50   89.5    18    5.2   176     10.9   929.9    0.00     765    85.6
 233   11:00   89.2    18    2.9   200      8.0   929.9    0.00     784    85.6
 233   11:10   89.8    18    3.3   198      8.6   929.8    0.00     827    85.7
 233   11:20   90.1    18    5.3   155     11.2   929.7    0.00     865    85.8
 233   11:30   90.3    18    7.1   170     16.4   929.5    0.00     887    85.9
 233   11:40   91.3    18    6.5   189     13.6   929.4    0.00     890    85.9
 233   11:50   91.3    17    8.0   189     13.3   929.3    0.00     897    86.0
 233   12:00   91.5    17    9.8   186     15.5   929.2    0.00     898    86.2
 233   12:10   91.3    17    5.1   199     13.9   929.1    0.00     816    86.3
 233   12:20   91.8    17    7.0   197     14.3   928.9    0.00     808    86.4
 233   12:30   91.6    17    7.9   174     14.6   928.9    0.00     804    86.6
 233   12:40   92.0    17    4.2   176      9.5   928.9    0.00     829    86.8
 233   12:50   92.0    16    4.0    79      8.0   928.8    0.00     886    87.1
 233   13:00   92.0    16    4.1    88      8.6   928.7    0.00     800    87.3
 233   13:10   93.3    16    2.9   328     11.5   928.5    0.00     883    87.6
 233   13:20   92.9    16    3.4   113      8.5   928.6    0.00     753    87.9
 233   13:30   93.2    16    4.9   162     11.3   928.4    0.00     851    88.1
 233   13:40   92.6    17    8.2   152     15.5   928.3    0.00     483    88.4
 233   13:50   92.7    16    5.3   116     12.8   928.1    0.00     529    88.7
 233   14:00   93.8    16    3.4   162      9.5   927.9    0.00     865    89.0
 233   14:10   93.2    17    7.2   169     12.6   928.0    0.00     516    89.4
 233   14:20   92.6    17    4.1   294     13.1   927.8    0.00     598    89.7
 233   14:30   92.6    17    4.8   145     12.3   927.6    0.00     184    90.0
 233   14:40   92.4    17   10.3   193     15.6   927.3    0.00     140    90.3
 233   14:50   92.9    16   11.6   188     17.6   927.2    0.00     331    90.6
 233   15:00   93.5    16   11.9   171     19.8   927.2    0.00     716    90.9
 233   15:10   93.5    16   13.1   180     20.8   927.2    0.00     618    91.1
 233   15:20   93.2    16   12.1   181     17.4   927.2    0.00     261    91.4
 233   15:30   92.6    20   19.0   156     30.8   927.4    0.00     211    91.6
 233   15:40   90.4    23   21.4   147     28.1   927.6    0.00     124    91.8
 233   15:50   89.6    24   20.5   150     29.2   927.5    0.00      64    92.0
 233   16:00   89.4    24   20.3   148     29.0   927.5    0.00      65    92.2
 233   16:10   88.4    24   21.8   148     30.0   927.6    0.00      67    92.3
 233   16:20   87.6    23   20.7   150     29.5   927.5    0.00      64    92.5
 233   16:30   86.8    23   20.3   147     29.5   927.5    0.00      49    92.5
 233   16:40   86.5    23   20.0   152     29.4   927.5    0.00      53    92.6
 233   16:50   86.9    22   21.0   147     28.4   927.6    0.00     102    92.7
 233   17:00   86.6    22   19.8   149     27.9   927.5    0.00      40    92.7
 233   17:10   86.3    22   19.5   147     29.8   927.4    0.00      37    92.7
 233   17:20   86.3    22   18.1   153     27.8   927.4    0.00      34    92.8
 233   17:30   86.0    23   17.2   153     24.4   927.4    0.00      31    92.8
 233   17:40   85.5    23   15.8   149     22.3   927.3    0.00      26    92.8
 233   17:50   84.7    23   14.8   150     20.6   927.3    0.00      23    92.8
 233   18:00   84.7    23   14.4   148     20.5   927.3    0.00      19    92.7
 233   18:10   84.6    23   13.3   148     21.3   927.4    0.00      15    92.7
 233   18:20   84.4    23   12.9   146     18.3   927.4    0.00      11    92.7
 233   18:30   84.1    23   10.4   145     17.4   927.4    0.00       6    92.6
 233   18:40   83.8    24    9.1   142     16.1   927.4    0.00       1    92.6
 233   18:50   83.6    24    8.7   140     13.9   927.5    0.00       0    92.6
 233   19:00   83.2    24    7.7   132     11.2   927.5    0.00       0    92.5
 233   19:10   82.9    24    7.0   122      9.9   927.5    0.00       0    92.5
 233   19:20   82.2    24    6.6   112      9.0   927.7    0.00       0    92.4
 233   19:30   81.8    24    7.9   111     11.4   927.7    0.00       0    92.3
 233   19:40   81.8    25    8.5   116     11.6   927.8    0.00       0    92.3
 233   19:50   81.5    25    8.9   122     12.7   927.9    0.00       0    92.2
 233   20:00   81.2    25    9.7   122     14.2   928.0    0.00       0    92.2
 233   20:10   81.0    26    9.4   126     12.9   928.0    0.00       0    92.1
 233   20:20   80.9    26    9.7   130     15.1   928.1    0.00       0    92.0
 233   20:30   80.6    27    9.2   133     12.8   928.1    0.00       0    91.9
 233   20:40   80.4    27    9.0   133     13.4   928.3    0.00       0    91.9
 233   20:50   80.0    28    9.1   133     13.4   928.3    0.00       0    91.8
 233   21:00   79.7    28    8.6   135     11.5   928.3    0.00       0    91.7
 233   21:10   79.3    28    8.6   135     12.2   928.2    0.00       0    91.6
 233   21:20   79.3    28    9.3   146     13.1   928.2    0.00       0    91.5
 233   21:30   79.2    28    8.5   146     12.3   928.2    0.00       0    91.4
 233   21:40   78.6    29    9.0   137     13.2   928.3    0.00       0    91.3
 233   21:50   78.2    30    9.2   137     13.7   928.4    0.00       0    91.2
 233   22:00   78.3    30    9.8   146     15.6   928.5    0.00       0    91.1
 233   22:10   78.5    33   13.1   153     21.7   928.6    0.00       0    91.0
 233   22:20   78.5    37   15.8   160     24.5   928.6    0.00       0    90.9
 233   22:30   78.2    39   16.6   160     24.0   928.7    0.00       0    90.8
 233   22:40   78.1    39   15.9   160     22.9   928.8    0.00       0    90.8
 233   22:50   77.5    39   12.8   146     21.5   928.9    0.00       0    90.7
 233   23:00   77.4    39   13.9   148     22.9   929.0    0.00       0    90.6
 233   23:10   77.1    40   14.9   157     23.2   929.0    0.00       0    90.5
 233   23:20   76.7    41   12.1   156     18.0   929.0    0.00       0    90.4
 233   23:30   76.4    42   11.1   152     17.6   928.9    0.00       0    90.3
 233   23:40   75.9    43   10.8   153     16.4   928.9    0.00       0    90.2
 233   23:50   75.9    44   11.2   150     16.5   928.8    0.00       0    90.1
 234    0:00   75.8    44   11.3   158     15.6   928.8    0.00       0    90.1
 234    0:10   75.7    44   11.7   154     15.9   928.9    0.00       0    90.0
 234    0:20   75.3    45    8.4   150     12.8   928.9    0.00       0    89.9
 234    0:30   74.8    46    7.5   148     10.9   928.9    0.00       0    89.9
 234    0:40   74.8    46    8.6   154     14.0   928.9    0.00       0    89.8
 234    0:50   74.8    46    9.9   154     15.5   928.9    0.00       0    89.7
 234    1:00   74.4    46    7.8   150     14.6   928.8    0.00       0    89.6
 234    1:10   74.0    46    7.4   143     11.3   928.8    0.00       0    89.5
 234    1:20   73.3    47    5.6   125      9.3   928.9    0.00       0    89.4
 234    1:30   72.8    47    5.8   117      8.3   928.8    0.00       0    89.3
 234    1:40   72.8    47    6.6   120      9.1   928.8    0.00       0    89.2
 234    1:50   73.1    46    7.4   131     10.1   928.8    0.00       0    89.1
 234    2:00   73.2    46    7.2   134     11.8   928.8    0.00       0    89.0
 234    2:10   72.9    46    7.0   128      9.2   928.8    0.00       0    88.9

Return to Amargosa Valley, Nevada graphs page.


Western Regional Climate Center,wrcc@dri.edu